sensor_id;sensor_type;location;lat;lon;timestamp;P1;durP1;ratioP1;P2;durP2;ratioP2
52274;SDS011;38228;50.940;4.024;2023-06-19T00:02:20;9.32;;;3.60;;
52274;SDS011;38228;50.940;4.024;2023-06-19T00:04:46;6.05;;;3.47;;
52274;SDS011;38228;50.940;4.024;2023-06-19T00:07:12;5.75;;;3.35;;
52274;SDS011;38228;50.940;4.024;2023-06-19T00:09:38;7.10;;;3.63;;
52274;SDS011;38228;50.940;4.024;2023-06-19T00:12:03;7.55;;;3.03;;
52274;SDS011;38228;50.940;4.024;2023-06-19T00:14:29;6.32;;;3.92;;
52274;SDS011;38228;50.940;4.024;2023-06-19T00:16:55;5.57;;;3.38;;
52274;SDS011;38228;50.940;4.024;2023-06-19T00:19:21;5.82;;;3.50;;
52274;SDS011;38228;50.940;4.024;2023-06-19T00:21:47;6.47;;;3.80;;
52274;SDS011;38228;50.940;4.024;2023-06-19T00:24:13;6.60;;;3.53;;
52274;SDS011;38228;50.940;4.024;2023-06-19T00:26:39;5.40;;;3.55;;
52274;SDS011;38228;50.940;4.024;2023-06-19T00:29:05;7.25;;;4.25;;
52274;SDS011;38228;50.940;4.024;2023-06-19T00:31:32;8.85;;;4.22;;
52274;SDS011;38228;50.940;4.024;2023-06-19T00:33:57;5.95;;;3.97;;
52274;SDS011;38228;50.940;4.024;2023-06-19T00:36:23;8.88;;;3.97;;
52274;SDS011;38228;50.940;4.024;2023-06-19T00:38:51;7.63;;;3.95;;
52274;SDS011;38228;50.940;4.024;2023-06-19T00:41:17;6.45;;;4.07;;
52274;SDS011;38228;50.940;4.024;2023-06-19T00:43:43;7.95;;;4.18;;
52274;SDS011;38228;50.940;4.024;2023-06-19T00:46:09;6.50;;;4.18;;
52274;SDS011;38228;50.940;4.024;2023-06-19T00:48:36;8.07;;;4.30;;
52274;SDS011;38228;50.940;4.024;2023-06-19T00:51:03;7.30;;;4.40;;
52274;SDS011;38228;50.940;4.024;2023-06-19T00:53:29;7.60;;;4.20;;
52274;SDS011;38228;50.940;4.024;2023-06-19T00:55:57;7.20;;;4.82;;
52274;SDS011;38228;50.940;4.024;2023-06-19T00:58:24;5.93;;;4.72;;
52274;SDS011;38228;50.940;4.024;2023-06-19T01:00:50;11.18;;;4.75;;
52274;SDS011;38228;50.940;4.024;2023-06-19T01:03:16;6.00;;;4.30;;
52274;SDS011;38228;50.940;4.024;2023-06-19T01:05:42;9.70;;;4.90;;
52274;SDS011;38228;50.940;4.024;2023-06-19T01:10:53;9.20;;;4.88;;
52274;SDS011;38228;50.940;4.024;2023-06-19T01:13:39;9.27;;;5.25;;
52274;SDS011;38228;50.940;4.024;2023-06-19T01:16:10;10.00;;;5.40;;
52274;SDS011;38228;50.940;4.024;2023-06-19T01:18:37;7.60;;;4.78;;
52274;SDS011;38228;50.940;4.024;2023-06-19T01:21:13;6.07;;;5.43;;
52274;SDS011;38228;50.940;4.024;2023-06-19T01:23:40;7.30;;;4.53;;
52274;SDS011;38228;50.940;4.024;2023-06-19T01:26:07;7.90;;;4.65;;
52274;SDS011;38228;50.940;4.024;2023-06-19T01:28:34;9.32;;;4.97;;
52274;SDS011;38228;50.940;4.024;2023-06-19T01:31:15;7.78;;;4.93;;
52274;SDS011;38228;50.940;4.024;2023-06-19T01:33:46;8.75;;;5.13;;
52274;SDS011;38228;50.940;4.024;2023-06-19T01:36:14;6.88;;;4.95;;
52274;SDS011;38228;50.940;4.024;2023-06-19T01:38:41;11.43;;;5.85;;
52274;SDS011;38228;50.940;4.024;2023-06-19T01:41:09;10.27;;;5.93;;
52274;SDS011;38228;50.940;4.024;2023-06-19T01:43:35;9.13;;;5.82;;
52274;SDS011;38228;50.940;4.024;2023-06-19T01:46:02;9.93;;;6.15;;
52274;SDS011;38228;50.940;4.024;2023-06-19T01:48:29;9.15;;;5.63;;
52274;SDS011;38228;50.940;4.024;2023-06-19T01:50:54;10.10;;;6.03;;
52274;SDS011;38228;50.940;4.024;2023-06-19T01:53:20;8.88;;;6.55;;
52274;SDS011;38228;50.940;4.024;2023-06-19T01:55:46;10.80;;;6.32;;
52274;SDS011;38228;50.940;4.024;2023-06-19T01:58:12;9.07;;;5.80;;
52274;SDS011;38228;50.940;4.024;2023-06-19T02:00:38;10.40;;;7.15;;
52274;SDS011;38228;50.940;4.024;2023-06-19T02:03:04;11.48;;;7.53;;
52274;SDS011;38228;50.940;4.024;2023-06-19T02:05:30;12.25;;;7.60;;
52274;SDS011;38228;50.940;4.024;2023-06-19T02:07:56;13.68;;;7.07;;
52274;SDS011;38228;50.940;4.024;2023-06-19T02:10:22;8.60;;;7.55;;
52274;SDS011;38228;50.940;4.024;2023-06-19T02:12:48;11.32;;;7.93;;
52274;SDS011;38228;50.940;4.024;2023-06-19T02:15:13;10.85;;;8.23;;
52274;SDS011;38228;50.940;4.024;2023-06-19T02:17:39;13.23;;;8.02;;
52274;SDS011;38228;50.940;4.024;2023-06-19T02:20:07;11.57;;;7.50;;
52274;SDS011;38228;50.940;4.024;2023-06-19T02:22:39;10.23;;;7.28;;
52274;SDS011;38228;50.940;4.024;2023-06-19T02:25:05;10.20;;;7.20;;
52274;SDS011;38228;50.940;4.024;2023-06-19T02:27:31;9.07;;;6.88;;
52274;SDS011;38228;50.940;4.024;2023-06-19T02:29:57;14.90;;;6.95;;
52274;SDS011;38228;50.940;4.024;2023-06-19T02:32:23;10.60;;;6.97;;
52274;SDS011;38228;50.940;4.024;2023-06-19T02:34:50;7.90;;;6.00;;
52274;SDS011;38228;50.940;4.024;2023-06-19T02:37:15;8.77;;;5.60;;
52274;SDS011;38228;50.940;4.024;2023-06-19T02:39:41;13.32;;;6.40;;
52274;SDS011;38228;50.940;4.024;2023-06-19T02:42:07;8.57;;;6.07;;
52274;SDS011;38228;50.940;4.024;2023-06-19T02:44:32;8.30;;;5.60;;
52274;SDS011;38228;50.940;4.024;2023-06-19T02:46:58;11.48;;;6.00;;
52274;SDS011;38228;50.940;4.024;2023-06-19T02:49:24;9.13;;;5.93;;
52274;SDS011;38228;50.940;4.024;2023-06-19T02:51:49;8.57;;;5.75;;
52274;SDS011;38228;50.940;4.024;2023-06-19T02:54:15;7.93;;;5.20;;
52274;SDS011;38228;50.940;4.024;2023-06-19T02:56:41;8.15;;;5.93;;
52274;SDS011;38228;50.940;4.024;2023-06-19T02:59:06;7.57;;;5.65;;
52274;SDS011;38228;50.940;4.024;2023-06-19T03:01:32;8.60;;;5.57;;
52274;SDS011;38228;50.940;4.024;2023-06-19T03:03:59;9.35;;;6.38;;
52274;SDS011;38228;50.940;4.024;2023-06-19T03:06:24;7.93;;;5.90;;
52274;SDS011;38228;50.940;4.024;2023-06-19T03:08:51;9.95;;;6.50;;
52274;SDS011;38228;50.940;4.024;2023-06-19T03:11:16;6.20;;;5.57;;
52274;SDS011;38228;50.940;4.024;2023-06-19T03:13:52;7.68;;;5.68;;
52274;SDS011;38228;50.940;4.024;2023-06-19T03:16:19;7.13;;;5.55;;
52274;SDS011;38228;50.940;4.024;2023-06-19T03:18:45;11.65;;;5.93;;
52274;SDS011;38228;50.940;4.024;2023-06-19T03:21:15;8.32;;;5.78;;
52274;SDS011;38228;50.940;4.024;2023-06-19T03:23:41;7.20;;;5.30;;
52274;SDS011;38228;50.940;4.024;2023-06-19T03:26:09;10.80;;;6.35;;
52274;SDS011;38228;50.940;4.024;2023-06-19T03:28:36;10.15;;;6.35;;
52274;SDS011;38228;50.940;4.024;2023-06-19T03:31:02;12.85;;;6.47;;
52274;SDS011;38228;50.940;4.024;2023-06-19T03:33:27;11.15;;;6.22;;
52274;SDS011;38228;50.940;4.024;2023-06-19T03:35:53;9.25;;;6.60;;
52274;SDS011;38228;50.940;4.024;2023-06-19T03:38:19;11.55;;;7.13;;
52274;SDS011;38228;50.940;4.024;2023-06-19T03:40:44;11.45;;;7.47;;
52274;SDS011;38228;50.940;4.024;2023-06-19T03:43:10;8.18;;;7.07;;
52274;SDS011;38228;50.940;4.024;2023-06-19T03:45:36;8.52;;;6.93;;
52274;SDS011;38228;50.940;4.024;2023-06-19T03:48:02;9.60;;;7.13;;
52274;SDS011;38228;50.940;4.024;2023-06-19T03:50:28;8.52;;;6.45;;
52274;SDS011;38228;50.940;4.024;2023-06-19T03:52:54;12.23;;;7.35;;
52274;SDS011;38228;50.940;4.024;2023-06-19T03:55:19;10.82;;;8.18;;
52274;SDS011;38228;50.940;4.024;2023-06-19T03:57:45;16.08;;;8.77;;
52274;SDS011;38228;50.940;4.024;2023-06-19T04:00:11;11.80;;;8.85;;
52274;SDS011;38228;50.940;4.024;2023-06-19T04:02:38;13.32;;;9.57;;
52274;SDS011;38228;50.940;4.024;2023-06-19T04:05:05;15.82;;;8.75;;
52274;SDS011;38228;50.940;4.024;2023-06-19T04:07:31;12.95;;;9.63;;
52274;SDS011;38228;50.940;4.024;2023-06-19T04:09:57;14.05;;;9.90;;
52274;SDS011;38228;50.940;4.024;2023-06-19T04:12:23;14.23;;;10.32;;
52274;SDS011;38228;50.940;4.024;2023-06-19T04:14:49;16.48;;;10.48;;
52274;SDS011;38228;50.940;4.024;2023-06-19T04:17:15;15.35;;;10.50;;
52274;SDS011;38228;50.940;4.024;2023-06-19T04:19:41;16.98;;;11.25;;
52274;SDS011;38228;50.940;4.024;2023-06-19T04:22:06;14.18;;;10.65;;
52274;SDS011;38228;50.940;4.024;2023-06-19T04:24:32;14.73;;;11.27;;
52274;SDS011;38228;50.940;4.024;2023-06-19T04:26:58;15.73;;;11.30;;
52274;SDS011;38228;50.940;4.024;2023-06-19T04:29:24;16.08;;;12.27;;
52274;SDS011;38228;50.940;4.024;2023-06-19T04:31:50;15.18;;;11.15;;
52274;SDS011;38228;50.940;4.024;2023-06-19T04:34:16;14.75;;;11.80;;
52274;SDS011;38228;50.940;4.024;2023-06-19T04:36:46;16.92;;;12.52;;
52274;SDS011;38228;50.940;4.024;2023-06-19T04:39:12;17.58;;;13.00;;
52274;SDS011;38228;50.940;4.024;2023-06-19T04:41:38;19.45;;;13.10;;
52274;SDS011;38228;50.940;4.024;2023-06-19T04:44:06;17.83;;;13.43;;
52274;SDS011;38228;50.940;4.024;2023-06-19T04:46:33;17.75;;;13.95;;
52274;SDS011;38228;50.940;4.024;2023-06-19T04:48:59;19.35;;;13.00;;
52274;SDS011;38228;50.940;4.024;2023-06-19T04:51:25;19.00;;;13.50;;
52274;SDS011;38228;50.940;4.024;2023-06-19T04:53:51;20.98;;;13.60;;
52274;SDS011;38228;50.940;4.024;2023-06-19T04:56:17;20.10;;;13.18;;
52274;SDS011;38228;50.940;4.024;2023-06-19T04:58:43;17.85;;;13.70;;
52274;SDS011;38228;50.940;4.024;2023-06-19T05:01:12;22.45;;;15.32;;
52274;SDS011;38228;50.940;4.024;2023-06-19T05:03:39;19.27;;;14.27;;
52274;SDS011;38228;50.940;4.024;2023-06-19T05:06:05;19.55;;;14.27;;
52274;SDS011;38228;50.940;4.024;2023-06-19T05:08:30;21.00;;;15.20;;
52274;SDS011;38228;50.940;4.024;2023-06-19T05:10:56;24.50;;;15.57;;
52274;SDS011;38228;50.940;4.024;2023-06-19T05:13:23;23.45;;;16.05;;
52274;SDS011;38228;50.940;4.024;2023-06-19T05:15:49;21.75;;;16.05;;
52274;SDS011;38228;50.940;4.024;2023-06-19T05:18:15;20.52;;;15.20;;
52274;SDS011;38228;50.940;4.024;2023-06-19T05:20:41;26.15;;;16.10;;
52274;SDS011;38228;50.940;4.024;2023-06-19T05:23:07;24.70;;;16.80;;
52274;SDS011;38228;50.940;4.024;2023-06-19T05:25:33;20.40;;;16.23;;
52274;SDS011;38228;50.940;4.024;2023-06-19T05:27:59;23.65;;;16.42;;
52274;SDS011;38228;50.940;4.024;2023-06-19T05:30:24;21.23;;;16.08;;
52274;SDS011;38228;50.940;4.024;2023-06-19T05:32:50;21.77;;;16.60;;
52274;SDS011;38228;50.940;4.024;2023-06-19T05:35:16;25.17;;;18.00;;
52274;SDS011;38228;50.940;4.024;2023-06-19T05:37:41;23.98;;;16.52;;
52274;SDS011;38228;50.940;4.024;2023-06-19T05:40:09;23.38;;;16.85;;
52274;SDS011;38228;50.940;4.024;2023-06-19T05:42:35;24.23;;;18.35;;
52274;SDS011;38228;50.940;4.024;2023-06-19T05:45:02;61.58;;;18.50;;
52274;SDS011;38228;50.940;4.024;2023-06-19T05:47:28;24.45;;;17.08;;
52274;SDS011;38228;50.940;4.024;2023-06-19T05:49:55;21.92;;;15.45;;
52274;SDS011;38228;50.940;4.024;2023-06-19T05:52:24;25.65;;;16.90;;
52274;SDS011;38228;50.940;4.024;2023-06-19T05:54:49;22.02;;;16.10;;
52274;SDS011;38228;50.940;4.024;2023-06-19T05:57:15;23.27;;;16.50;;
52274;SDS011;38228;50.940;4.024;2023-06-19T05:59:45;19.55;;;15.75;;
52274;SDS011;38228;50.940;4.024;2023-06-19T06:02:11;23.27;;;15.52;;
52274;SDS011;38228;50.940;4.024;2023-06-19T06:04:37;26.10;;;18.20;;
52274;SDS011;38228;50.940;4.024;2023-06-19T06:07:03;19.73;;;16.52;;
52274;SDS011;38228;50.940;4.024;2023-06-19T06:09:29;22.63;;;16.15;;
52274;SDS011;38228;50.940;4.024;2023-06-19T06:11:55;21.17;;;16.35;;
52274;SDS011;38228;50.940;4.024;2023-06-19T06:14:21;23.05;;;15.75;;
52274;SDS011;38228;50.940;4.024;2023-06-19T06:16:46;24.90;;;15.88;;
52274;SDS011;38228;50.940;4.024;2023-06-19T06:19:12;18.58;;;15.07;;
52274;SDS011;38228;50.940;4.024;2023-06-19T06:21:38;22.65;;;15.88;;
52274;SDS011;38228;50.940;4.024;2023-06-19T06:24:03;20.98;;;15.18;;
52274;SDS011;38228;50.940;4.024;2023-06-19T06:26:29;19.73;;;15.05;;
52274;SDS011;38228;50.940;4.024;2023-06-19T06:28:56;19.92;;;14.85;;
52274;SDS011;38228;50.940;4.024;2023-06-19T06:31:22;18.70;;;13.45;;
52274;SDS011;38228;50.940;4.024;2023-06-19T06:33:48;19.20;;;14.18;;
52274;SDS011;38228;50.940;4.024;2023-06-19T06:36:17;18.60;;;14.20;;
52274;SDS011;38228;50.940;4.024;2023-06-19T06:38:44;19.30;;;13.43;;
52274;SDS011;38228;50.940;4.024;2023-06-19T06:41:09;19.30;;;14.63;;
52274;SDS011;38228;50.940;4.024;2023-06-19T06:43:35;19.08;;;13.23;;
52274;SDS011;38228;50.940;4.024;2023-06-19T06:46:01;20.77;;;13.45;;
52274;SDS011;38228;50.940;4.024;2023-06-19T06:48:27;17.73;;;13.07;;
52274;SDS011;38228;50.940;4.024;2023-06-19T06:50:52;18.65;;;13.70;;
52274;SDS011;38228;50.940;4.024;2023-06-19T06:53:24;19.05;;;14.10;;
52274;SDS011;38228;50.940;4.024;2023-06-19T06:55:51;19.67;;;13.65;;
52274;SDS011;38228;50.940;4.024;2023-06-19T06:58:17;19.73;;;13.68;;
52274;SDS011;38228;50.940;4.024;2023-06-19T07:00:43;18.27;;;13.93;;
52274;SDS011;38228;50.940;4.024;2023-06-19T07:03:09;17.42;;;12.85;;
52274;SDS011;38228;50.940;4.024;2023-06-19T07:05:35;18.83;;;13.18;;
52274;SDS011;38228;50.940;4.024;2023-06-19T07:08:00;21.23;;;13.10;;
52274;SDS011;38228;50.940;4.024;2023-06-19T07:10:27;19.42;;;13.15;;
52274;SDS011;38228;50.940;4.024;2023-06-19T07:12:52;17.90;;;11.68;;
52274;SDS011;38228;50.940;4.024;2023-06-19T07:15:18;17.50;;;12.70;;
52274;SDS011;38228;50.940;4.024;2023-06-19T07:17:44;19.30;;;12.95;;
52274;SDS011;38228;50.940;4.024;2023-06-19T07:20:10;18.45;;;12.63;;
52274;SDS011;38228;50.940;4.024;2023-06-19T07:22:36;20.20;;;11.85;;
52274;SDS011;38228;50.940;4.024;2023-06-19T07:25:02;18.55;;;12.77;;
52274;SDS011;38228;50.940;4.024;2023-06-19T07:27:29;18.00;;;12.65;;
52274;SDS011;38228;50.940;4.024;2023-06-19T07:29:55;15.88;;;12.63;;
52274;SDS011;38228;50.940;4.024;2023-06-19T07:32:21;17.63;;;12.07;;
52274;SDS011;38228;50.940;4.024;2023-06-19T07:34:46;16.73;;;11.75;;
52274;SDS011;38228;50.940;4.024;2023-06-19T07:37:12;16.70;;;11.30;;
52274;SDS011;38228;50.940;4.024;2023-06-19T07:39:45;15.43;;;11.90;;
52274;SDS011;38228;50.940;4.024;2023-06-19T07:42:15;14.95;;;11.07;;
52274;SDS011;38228;50.940;4.024;2023-06-19T07:44:42;16.58;;;12.38;;
52274;SDS011;38228;50.940;4.024;2023-06-19T07:47:08;18.08;;;11.82;;
52274;SDS011;38228;50.940;4.024;2023-06-19T07:49:34;18.92;;;11.55;;
52274;SDS011;38228;50.940;4.024;2023-06-19T07:52:01;17.90;;;11.65;;
52274;SDS011;38228;50.940;4.024;2023-06-19T07:54:27;15.88;;;11.15;;
52274;SDS011;38228;50.940;4.024;2023-06-19T07:56:53;16.75;;;10.98;;
52274;SDS011;38228;50.940;4.024;2023-06-19T07:59:19;14.32;;;10.18;;
52274;SDS011;38228;50.940;4.024;2023-06-19T08:01:45;16.70;;;10.60;;
52274;SDS011;38228;50.940;4.024;2023-06-19T08:04:11;19.00;;;11.10;;
52274;SDS011;38228;50.940;4.024;2023-06-19T08:06:36;16.85;;;10.88;;
52274;SDS011;38228;50.940;4.024;2023-06-19T08:09:02;16.48;;;11.18;;
52274;SDS011;38228;50.940;4.024;2023-06-19T08:11:28;13.65;;;9.73;;
52274;SDS011;38228;50.940;4.024;2023-06-19T08:13:54;15.00;;;10.18;;
52274;SDS011;38228;50.940;4.024;2023-06-19T08:16:20;18.92;;;11.05;;
52274;SDS011;38228;50.940;4.024;2023-06-19T08:18:46;18.02;;;10.25;;
52274;SDS011;38228;50.940;4.024;2023-06-19T08:21:12;14.40;;;10.35;;
52274;SDS011;38228;50.940;4.024;2023-06-19T08:23:38;13.65;;;10.40;;
52274;SDS011;38228;50.940;4.024;2023-06-19T08:26:05;12.45;;;9.88;;
52274;SDS011;38228;50.940;4.024;2023-06-19T08:28:32;18.15;;;10.35;;
52274;SDS011;38228;50.940;4.024;2023-06-19T08:30:59;16.83;;;9.40;;
52274;SDS011;38228;50.940;4.024;2023-06-19T08:33:24;17.45;;;10.27;;
52274;SDS011;38228;50.940;4.024;2023-06-19T08:35:50;19.27;;;10.20;;
52274;SDS011;38228;50.940;4.024;2023-06-19T08:38:16;14.55;;;10.95;;
52274;SDS011;38228;50.940;4.024;2023-06-19T08:40:42;17.17;;;9.85;;
52274;SDS011;38228;50.940;4.024;2023-06-19T08:43:09;18.15;;;9.50;;
52274;SDS011;38228;50.940;4.024;2023-06-19T08:45:35;17.10;;;9.55;;
52274;SDS011;38228;50.940;4.024;2023-06-19T08:48:01;19.17;;;9.77;;
52274;SDS011;38228;50.940;4.024;2023-06-19T08:50:29;18.50;;;10.40;;
52274;SDS011;38228;50.940;4.024;2023-06-19T08:52:55;15.00;;;9.13;;
52274;SDS011;38228;50.940;4.024;2023-06-19T08:55:21;12.20;;;9.20;;
52274;SDS011;38228;50.940;4.024;2023-06-19T08:57:48;14.90;;;9.50;;
52274;SDS011;38228;50.940;4.024;2023-06-19T09:00:24;16.52;;;10.27;;
52274;SDS011;38228;50.940;4.024;2023-06-19T09:02:51;15.57;;;9.63;;
52274;SDS011;38228;50.940;4.024;2023-06-19T09:05:23;15.90;;;11.40;;
52274;SDS011;38228;50.940;4.024;2023-06-19T09:07:57;17.33;;;11.10;;
52274;SDS011;38228;50.940;4.024;2023-06-19T09:10:26;15.73;;;11.82;;
52274;SDS011;38228;50.940;4.024;2023-06-19T09:13:02;18.75;;;10.73;;
52274;SDS011;38228;50.940;4.024;2023-06-19T09:15:32;15.60;;;11.75;;
52274;SDS011;38228;50.940;4.024;2023-06-19T09:18:03;16.83;;;11.05;;
52274;SDS011;38228;50.940;4.024;2023-06-19T09:20:29;16.88;;;12.30;;
52274;SDS011;38228;50.940;4.024;2023-06-19T09:22:56;17.27;;;12.00;;
52274;SDS011;38228;50.940;4.024;2023-06-19T09:25:22;15.55;;;11.07;;
52274;SDS011;38228;50.940;4.024;2023-06-19T09:27:52;15.50;;;10.75;;
52274;SDS011;38228;50.940;4.024;2023-06-19T09:30:19;18.85;;;10.10;;
52274;SDS011;38228;50.940;4.024;2023-06-19T09:32:45;19.30;;;9.52;;
52274;SDS011;38228;50.940;4.024;2023-06-19T09:35:11;14.10;;;9.70;;
52274;SDS011;38228;50.940;4.024;2023-06-19T09:37:37;15.10;;;9.25;;
52274;SDS011;38228;50.940;4.024;2023-06-19T09:40:05;15.70;;;8.90;;
52274;SDS011;38228;50.940;4.024;2023-06-19T09:42:36;12.75;;;8.73;;
52274;SDS011;38228;50.940;4.024;2023-06-19T09:45:05;15.90;;;9.23;;
52274;SDS011;38228;50.940;4.024;2023-06-19T09:47:37;16.13;;;10.13;;
52274;SDS011;38228;50.940;4.024;2023-06-19T09:50:05;14.85;;;9.70;;
52274;SDS011;38228;50.940;4.024;2023-06-19T09:52:31;13.55;;;9.63;;
52274;SDS011;38228;50.940;4.024;2023-06-19T09:54:58;15.23;;;8.43;;
52274;SDS011;38228;50.940;4.024;2023-06-19T09:57:27;25.10;;;8.82;;
52274;SDS011;38228;50.940;4.024;2023-06-19T09:59:55;12.63;;;7.97;;
52274;SDS011;38228;50.940;4.024;2023-06-19T10:02:22;14.40;;;8.70;;
52274;SDS011;38228;50.940;4.024;2023-06-19T10:04:53;13.00;;;8.57;;
52274;SDS011;38228;50.940;4.024;2023-06-19T10:07:22;14.98;;;9.10;;
52274;SDS011;38228;50.940;4.024;2023-06-19T10:09:55;14.10;;;9.23;;
52274;SDS011;38228;50.940;4.024;2023-06-19T10:15:42;12.48;;;9.57;;
52274;SDS011;38228;50.940;4.024;2023-06-19T10:18:16;13.88;;;8.25;;
52274;SDS011;38228;50.940;4.024;2023-06-19T10:20:43;14.63;;;9.18;;
52274;SDS011;38228;50.940;4.024;2023-06-19T10:25:47;15.43;;;10.27;;
52274;SDS011;38228;50.940;4.024;2023-06-19T10:28:23;18.15;;;11.57;;
52274;SDS011;38228;50.940;4.024;2023-06-19T10:31:03;14.80;;;10.40;;
52274;SDS011;38228;50.940;4.024;2023-06-19T10:33:34;15.70;;;10.10;;
52274;SDS011;38228;50.940;4.024;2023-06-19T10:36:20;22.35;;;10.68;;
52274;SDS011;38228;50.940;4.024;2023-06-19T10:38:47;14.95;;;10.63;;
52274;SDS011;38228;50.940;4.024;2023-06-19T10:41:18;40.42;;;13.98;;
52274;SDS011;38228;50.940;4.024;2023-06-19T10:43:56;15.98;;;11.77;;
52274;SDS011;38228;50.940;4.024;2023-06-19T10:46:29;16.45;;;12.68;;
52274;SDS011;38228;50.940;4.024;2023-06-19T10:48:57;14.63;;;10.68;;
52274;SDS011;38228;50.940;4.024;2023-06-19T10:51:29;18.55;;;11.65;;
52274;SDS011;38228;50.940;4.024;2023-06-19T10:54:05;15.40;;;10.63;;
52274;SDS011;38228;50.940;4.024;2023-06-19T10:56:31;12.93;;;10.05;;
52274;SDS011;38228;50.940;4.024;2023-06-19T10:59:02;21.48;;;10.35;;
52274;SDS011;38228;50.940;4.024;2023-06-19T11:04:04;12.05;;;9.13;;
52274;SDS011;38228;50.940;4.024;2023-06-19T11:06:33;14.65;;;8.02;;
52274;SDS011;38228;50.940;4.024;2023-06-19T11:08:59;14.65;;;8.82;;
52274;SDS011;38228;50.940;4.024;2023-06-19T11:11:36;15.52;;;8.20;;
52274;SDS011;38228;50.940;4.024;2023-06-19T11:14:06;13.93;;;7.38;;
52274;SDS011;38228;50.940;4.024;2023-06-19T11:16:33;11.90;;;7.68;;
52274;SDS011;38228;50.940;4.024;2023-06-19T11:19:00;16.85;;;7.72;;
52274;SDS011;38228;50.940;4.024;2023-06-19T11:21:35;13.20;;;7.55;;
52274;SDS011;38228;50.940;4.024;2023-06-19T11:24:06;18.58;;;8.07;;
52274;SDS011;38228;50.940;4.024;2023-06-19T11:26:40;16.60;;;8.27;;
52274;SDS011;38228;50.940;4.024;2023-06-19T11:29:21;17.80;;;7.30;;
52274;SDS011;38228;50.940;4.024;2023-06-19T11:31:49;14.15;;;7.32;;
52274;SDS011;38228;50.940;4.024;2023-06-19T11:34:16;16.60;;;7.35;;
52274;SDS011;38228;50.940;4.024;2023-06-19T11:36:42;11.43;;;7.63;;
52274;SDS011;38228;50.940;4.024;2023-06-19T11:39:12;12.45;;;7.38;;
52274;SDS011;38228;50.940;4.024;2023-06-19T11:41:40;21.20;;;7.70;;
52274;SDS011;38228;50.940;4.024;2023-06-19T11:44:08;15.90;;;7.80;;
52274;SDS011;38228;50.940;4.024;2023-06-19T11:46:35;13.32;;;6.90;;
52274;SDS011;38228;50.940;4.024;2023-06-19T11:49:13;15.88;;;6.63;;
52274;SDS011;38228;50.940;4.024;2023-06-19T11:51:44;11.68;;;6.70;;
52274;SDS011;38228;50.940;4.024;2023-06-19T11:54:11;11.95;;;6.70;;
52274;SDS011;38228;50.940;4.024;2023-06-19T11:56:39;16.63;;;6.93;;
52274;SDS011;38228;50.940;4.024;2023-06-19T11:59:05;10.82;;;6.72;;
52274;SDS011;38228;50.940;4.024;2023-06-19T12:01:32;10.13;;;6.05;;
52274;SDS011;38228;50.940;4.024;2023-06-19T12:04:00;14.05;;;7.53;;
52274;SDS011;38228;50.940;4.024;2023-06-19T12:06:26;12.50;;;6.72;;
52274;SDS011;38228;50.940;4.024;2023-06-19T12:08:53;7.78;;;6.03;;
52274;SDS011;38228;50.940;4.024;2023-06-19T12:11:19;10.88;;;6.30;;
52274;SDS011;38228;50.940;4.024;2023-06-19T12:13:44;17.85;;;7.38;;
52274;SDS011;38228;50.940;4.024;2023-06-19T12:16:11;11.05;;;6.57;;
52274;SDS011;38228;50.940;4.024;2023-06-19T12:18:37;15.45;;;7.70;;
52274;SDS011;38228;50.940;4.024;2023-06-19T12:21:03;15.63;;;7.28;;
52274;SDS011;38228;50.940;4.024;2023-06-19T12:23:29;12.93;;;6.97;;
52274;SDS011;38228;50.940;4.024;2023-06-19T12:25:54;10.63;;;6.43;;
52274;SDS011;38228;50.940;4.024;2023-06-19T12:28:20;10.52;;;6.68;;
52274;SDS011;38228;50.940;4.024;2023-06-19T12:30:46;12.25;;;6.82;;
52274;SDS011;38228;50.940;4.024;2023-06-19T12:33:15;9.73;;;6.13;;
52274;SDS011;38228;50.940;4.024;2023-06-19T12:35:42;10.18;;;5.70;;
52274;SDS011;38228;50.940;4.024;2023-06-19T12:38:08;10.70;;;6.03;;
52274;SDS011;38228;50.940;4.024;2023-06-19T12:40:34;9.32;;;6.43;;
52274;SDS011;38228;50.940;4.024;2023-06-19T12:43:01;13.05;;;6.32;;
52274;SDS011;38228;50.940;4.024;2023-06-19T12:45:27;12.00;;;6.53;;
52274;SDS011;38228;50.940;4.024;2023-06-19T12:47:53;10.40;;;6.50;;
52274;SDS011;38228;50.940;4.024;2023-06-19T12:50:19;9.13;;;6.00;;
52274;SDS011;38228;50.940;4.024;2023-06-19T12:52:45;10.05;;;6.15;;
52274;SDS011;38228;50.940;4.024;2023-06-19T12:55:10;9.57;;;5.63;;
52274;SDS011;38228;50.940;4.024;2023-06-19T12:57:36;11.05;;;5.40;;
52274;SDS011;38228;50.940;4.024;2023-06-19T13:00:02;7.97;;;6.13;;
52274;SDS011;38228;50.940;4.024;2023-06-19T13:02:33;11.05;;;5.88;;
52274;SDS011;38228;50.940;4.024;2023-06-19T13:04:59;17.23;;;6.43;;
52274;SDS011;38228;50.940;4.024;2023-06-19T13:07:24;12.45;;;6.55;;
52274;SDS011;38228;50.940;4.024;2023-06-19T13:09:50;11.55;;;6.28;;
52274;SDS011;38228;50.940;4.024;2023-06-19T13:12:16;13.02;;;6.35;;
52274;SDS011;38228;50.940;4.024;2023-06-19T13:14:41;17.10;;;6.93;;
52274;SDS011;38228;50.940;4.024;2023-06-19T13:17:07;9.18;;;4.97;;
52274;SDS011;38228;50.940;4.024;2023-06-19T13:19:33;6.32;;;5.30;;
52274;SDS011;38228;50.940;4.024;2023-06-19T13:21:58;12.73;;;5.78;;
52274;SDS011;38228;50.940;4.024;2023-06-19T13:24:24;12.85;;;5.25;;
52274;SDS011;38228;50.940;4.024;2023-06-19T13:26:52;12.93;;;5.63;;
52274;SDS011;38228;50.940;4.024;2023-06-19T13:29:18;7.95;;;5.40;;
52274;SDS011;38228;50.940;4.024;2023-06-19T13:31:44;8.63;;;5.75;;
52274;SDS011;38228;50.940;4.024;2023-06-19T13:34:10;8.93;;;5.68;;
52274;SDS011;38228;50.940;4.024;2023-06-19T13:36:36;11.88;;;5.25;;
52274;SDS011;38228;50.940;4.024;2023-06-19T13:39:02;6.78;;;5.00;;
52274;SDS011;38228;50.940;4.024;2023-06-19T13:41:28;8.13;;;5.22;;
52274;SDS011;38228;50.940;4.024;2023-06-19T13:43:56;13.80;;;5.57;;
52274;SDS011;38228;50.940;4.024;2023-06-19T13:46:22;8.52;;;4.90;;
52274;SDS011;38228;50.940;4.024;2023-06-19T13:48:47;9.52;;;5.75;;
52274;SDS011;38228;50.940;4.024;2023-06-19T13:51:16;11.35;;;5.63;;
52274;SDS011;38228;50.940;4.024;2023-06-19T13:53:43;8.13;;;5.22;;
52274;SDS011;38228;50.940;4.024;2023-06-19T13:56:09;8.02;;;5.13;;
52274;SDS011;38228;50.940;4.024;2023-06-19T13:58:35;9.75;;;4.93;;
52274;SDS011;38228;50.940;4.024;2023-06-19T14:01:01;9.93;;;4.47;;
52274;SDS011;38228;50.940;4.024;2023-06-19T14:03:26;7.88;;;4.68;;
52274;SDS011;38228;50.940;4.024;2023-06-19T14:05:52;8.65;;;4.90;;
52274;SDS011;38228;50.940;4.024;2023-06-19T14:08:18;6.47;;;4.50;;
52274;SDS011;38228;50.940;4.024;2023-06-19T14:10:43;6.60;;;4.40;;
52274;SDS011;38228;50.940;4.024;2023-06-19T14:13:09;7.20;;;4.63;;
52274;SDS011;38228;50.940;4.024;2023-06-19T14:15:35;8.80;;;4.80;;
52274;SDS011;38228;50.940;4.024;2023-06-19T14:18:00;8.50;;;5.00;;
52274;SDS011;38228;50.940;4.024;2023-06-19T14:20:27;9.52;;;5.07;;
52274;SDS011;38228;50.940;4.024;2023-06-19T14:22:52;8.98;;;4.78;;
52274;SDS011;38228;50.940;4.024;2023-06-19T14:25:18;8.75;;;4.50;;
52274;SDS011;38228;50.940;4.024;2023-06-19T14:27:44;6.75;;;4.50;;
52274;SDS011;38228;50.940;4.024;2023-06-19T14:30:10;6.90;;;4.55;;
52274;SDS011;38228;50.940;4.024;2023-06-19T14:32:35;8.98;;;4.85;;
52274;SDS011;38228;50.940;4.024;2023-06-19T14:35:04;8.93;;;4.70;;
52274;SDS011;38228;50.940;4.024;2023-06-19T14:37:31;5.80;;;4.10;;
52274;SDS011;38228;50.940;4.024;2023-06-19T14:39:57;6.22;;;4.53;;
52274;SDS011;38228;50.940;4.024;2023-06-19T14:42:23;6.50;;;4.20;;
52274;SDS011;38228;50.940;4.024;2023-06-19T14:44:48;7.78;;;3.92;;